Terminal Aerodrome Forecast
Issued by NWS

Home | Current Version | Previous Version | Text Only | Print | Product List | Glossary On
Versions: 1 2 3 4 5 6 7 8 9 10 11 12 13 14 15 16 17 18
000
FTUS43 KAPX 240520
TAFMBL
TAF
KMBL 240520Z 2406/2506 19006KT P6SM SCT200
     FM240900 19009KT P6SM BKN080 WS018/22040KT
     FM241200 20010G18KT P6SM BKN100 WS013/23045KT
     FM241800 20013G21KT P6SM BKN200 WS012/22050KT
     FM250100 23011G24KT P6SM OVC060
     FM250300 27011G24KT P6SM -SHRA OVC025=

USA.gov is the U.S. government's official web portal to all federal, state and local government web resources and services.